createdAt,value
2023-02-14T00:01:00.729Z,102305.00
2023-02-14T00:03:32.130Z,102300.98
2023-02-14T00:06:07.561Z,102298.91
2023-02-14T00:08:38.521Z,102291.38
2023-02-14T00:11:09.942Z,102285.85
2023-02-14T00:14:00.879Z,102286.02
2023-02-14T00:16:31.957Z,102273.96
2023-02-14T00:19:05.910Z,102272.29
2023-02-14T00:21:37.573Z,102267.61
2023-02-14T00:24:09.375Z,102267.86
2023-02-14T00:26:40.335Z,102275.05
2023-02-14T00:29:11.880Z,102276.96
2023-02-14T00:31:42.898Z,102272.79
2023-02-14T00:34:13.819Z,102260.08
2023-02-14T00:36:44.645Z,102258.97
2023-02-14T00:39:15.702Z,102247.05
2023-02-14T00:41:46.483Z,102228.75
2023-02-14T00:44:17.344Z,102220.02
2023-02-14T00:46:48.130Z,102214.51
2023-02-14T00:49:19.261Z,102210.89
2023-02-14T00:51:50.020Z,102211.21
2023-02-14T00:54:20.791Z,102207.91
2023-02-14T00:56:52.102Z,102200.39
2023-02-14T00:59:22.966Z,102192.35
2023-02-14T01:01:53.747Z,102196.59
2023-02-14T01:04:24.592Z,102203.90
2023-02-14T01:06:56.740Z,102204.32
2023-02-14T01:09:27.691Z,102205.69
2023-02-14T01:11:58.570Z,102201.78
2023-02-14T01:14:29.896Z,102199.38
2023-02-14T01:17:00.973Z,102200.23
2023-02-14T01:19:31.868Z,102194.59
2023-02-14T01:22:02.553Z,102193.42
2023-02-14T01:24:33.343Z,102199.64
2023-02-14T01:27:04.191Z,102199.20
2023-02-14T01:29:34.957Z,102191.45
2023-02-14T01:32:06.061Z,102180.69
2023-02-14T01:34:37.113Z,102173.42
2023-02-14T01:37:07.995Z,102168.71
2023-02-14T01:39:38.767Z,102165.02
2023-02-14T01:42:11.435Z,102162.81
2023-02-14T01:44:59.054Z,102170.73
2023-02-14T01:47:30.636Z,102180.72
2023-02-14T01:50:03.093Z,102176.45
2023-02-14T01:52:34.821Z,102160.64
2023-02-14T01:55:06.550Z,102151.79
2023-02-14T01:57:38.727Z,102148.23
2023-02-14T02:00:28.115Z,102136.89
2023-02-14T02:02:58.996Z,102120.47
2023-02-14T02:05:29.924Z,102107.93
2023-02-14T02:08:00.828Z,102098.67
2023-02-14T02:10:31.798Z,102098.20
2023-02-14T02:13:03.575Z,102096.81
2023-02-14T02:15:35.919Z,102094.10
2023-02-14T02:18:08.084Z,102093.36
2023-02-14T02:20:58.475Z,102090.71
2023-02-14T02:23:49.035Z,102086.65
2023-02-14T02:26:35.000Z,102082.58
2023-02-14T02:29:13.208Z,102082.04
2023-02-14T02:31:53.153Z,102083.48
2023-02-14T02:34:41.688Z,102083.48
2023-02-14T02:37:24.470Z,102078.66
2023-02-14T02:40:04.909Z,102081.94
2023-02-14T02:42:37.370Z,102089.50
2023-02-14T02:45:12.035Z,102091.09
2023-02-14T02:47:44.003Z,102093.91
2023-02-14T02:50:37.249Z,102099.94
2023-02-14T02:53:08.921Z,102098.91
2023-02-14T02:55:59.662Z,102101.17
2023-02-14T02:58:31.575Z,102095.77
2023-02-14T03:01:05.207Z,102097.51
2023-02-14T03:03:53.648Z,102099.15
2023-02-14T03:06:24.548Z,102100.77
2023-02-14T03:08:55.864Z,102101.24
2023-02-14T03:11:26.779Z,102094.58
2023-02-14T03:14:07.337Z,102080.86
2023-02-14T03:16:54.448Z,102076.38
2023-02-14T03:19:31.404Z,102075.67
2023-02-14T03:22:03.097Z,102078.86
2023-02-14T03:24:36.752Z,102081.15
2023-02-14T03:27:08.187Z,102074.13
2023-02-14T03:29:45.401Z,102066.16
2023-02-14T03:32:17.650Z,102061.55
2023-02-14T03:34:49.944Z,102058.23
2023-02-14T03:37:21.929Z,102049.52
2023-02-14T03:39:54.454Z,102052.29
2023-02-14T03:42:26.256Z,102060.90
2023-02-14T03:44:58.450Z,102063.05
2023-02-14T03:47:31.155Z,102069.52
2023-02-14T03:50:02.933Z,102072.19
2023-02-14T03:52:33.818Z,102066.66
2023-02-14T03:55:05.229Z,102057.73
2023-02-14T03:57:37.139Z,102049.29
2023-02-14T04:00:09.174Z,102042.73
2023-02-14T04:02:40.765Z,102043.20
2023-02-14T04:05:13.764Z,102039.81
2023-02-14T04:07:49.129Z,102039.92
2023-02-14T04:10:20.573Z,102044.39
2023-02-14T04:12:51.447Z,102048.80
2023-02-14T04:15:22.453Z,102051.81
2023-02-14T04:18:10.898Z,102064.37
2023-02-14T04:20:41.674Z,102064.39
2023-02-14T04:23:12.758Z,102062.73
2023-02-14T04:25:45.758Z,102058.13
2023-02-14T04:28:16.768Z,102046.52
2023-02-14T04:30:47.831Z,102037.59
2023-02-14T04:33:18.759Z,102035.05
2023-02-14T04:35:50.453Z,102051.86
2023-02-14T04:38:21.457Z,102066.25
2023-02-14T04:40:52.487Z,102058.55
2023-02-14T04:43:23.409Z,102056.00
2023-02-14T04:45:54.214Z,102064.76
2023-02-14T04:48:25.383Z,102067.67
2023-02-14T04:50:56.350Z,102060.34
2023-02-14T04:53:27.230Z,102060.49
2023-02-14T04:55:58.026Z,102056.96
2023-02-14T04:58:29.096Z,102059.64
2023-02-14T05:01:00.306Z,102059.45
2023-02-14T05:03:31.748Z,102064.67
2023-02-14T05:06:02.709Z,102063.04
2023-02-14T05:08:33.672Z,102059.59
2023-02-14T05:11:04.673Z,102056.86
2023-02-14T05:13:35.696Z,102060.15
2023-02-14T05:16:09.788Z,102058.13
2023-02-14T05:18:40.853Z,102054.84
2023-02-14T05:21:11.746Z,102046.23
2023-02-14T05:23:42.583Z,102051.79
2023-02-14T05:26:13.661Z,102063.52
2023-02-14T05:28:44.456Z,102067.27
2023-02-14T05:31:15.493Z,102073.22
2023-02-14T05:33:46.385Z,102078.05
2023-02-14T05:36:17.386Z,102077.06
2023-02-14T05:38:48.625Z,102077.91
2023-02-14T05:41:19.694Z,102081.74
2023-02-14T05:43:50.595Z,102087.23
2023-02-14T05:46:21.472Z,102096.55
2023-02-14T05:48:52.320Z,102092.98
2023-02-14T05:51:23.369Z,102088.36
2023-02-14T05:53:54.295Z,102092.17
2023-02-14T05:56:25.266Z,102096.04
2023-02-14T05:58:56.178Z,102095.73
2023-02-14T06:01:27.282Z,102096.96
2023-02-14T06:03:58.145Z,102102.45
2023-02-14T06:06:28.870Z,102098.36
2023-02-14T06:08:59.723Z,102094.81
2023-02-14T06:11:30.689Z,102090.56
2023-02-14T06:14:01.572Z,102095.85
2023-02-14T06:16:32.541Z,102092.55
2023-02-14T06:19:03.308Z,102094.80
2023-02-14T06:21:34.175Z,102099.30
2023-02-14T06:24:05.139Z,102107.13
2023-02-14T06:26:36.328Z,102118.02
2023-02-14T06:29:07.155Z,102119.48
2023-02-14T06:31:38.070Z,102118.14
2023-02-14T06:34:09.223Z,102120.02
2023-02-14T06:36:39.998Z,102125.50
2023-02-14T06:39:10.842Z,102121.57
2023-02-14T06:41:41.586Z,102125.90
2023-02-14T06:44:12.458Z,102125.19
2023-02-14T06:46:43.432Z,102123.21
2023-02-14T06:49:14.301Z,102122.99
2023-02-14T06:51:45.271Z,102116.80
2023-02-14T06:54:16.514Z,102116.84
2023-02-14T06:56:47.510Z,102107.98
2023-02-14T06:59:18.434Z,102102.15
2023-02-14T07:01:49.415Z,102101.89
2023-02-14T07:04:20.319Z,102093.52
2023-02-14T07:06:51.209Z,102085.94
2023-02-14T07:09:21.916Z,102085.27
2023-02-14T07:11:52.725Z,102083.84
2023-02-14T07:14:23.621Z,102088.26
2023-02-14T07:16:54.474Z,102092.45
2023-02-14T07:19:25.280Z,102087.80
2023-02-14T07:21:56.139Z,102083.64
2023-02-14T07:24:38.823Z,102084.80
2023-02-14T07:27:09.748Z,102077.06
2023-02-14T07:29:40.615Z,102076.98
2023-02-14T07:32:11.482Z,102075.67
2023-02-14T07:34:42.414Z,102072.22
2023-02-14T07:37:13.199Z,102066.92
2023-02-14T07:39:44.054Z,102061.52
2023-02-14T07:42:14.992Z,102063.34
2023-02-14T07:44:48.202Z,102061.25
2023-02-14T07:47:19.211Z,102060.16
2023-02-14T07:49:50.111Z,102061.48
2023-02-14T07:52:21.128Z,102066.83
2023-02-14T07:54:52.129Z,102059.95
2023-02-14T07:57:23.138Z,102055.33
2023-02-14T07:59:54.033Z,102054.77
2023-02-14T08:02:24.835Z,102050.98
2023-02-14T08:04:55.712Z,102057.50
2023-02-14T08:07:26.684Z,102056.60
2023-02-14T08:09:57.591Z,102051.88
2023-02-14T08:12:45.927Z,102048.87
2023-02-14T08:15:34.467Z,102047.65
2023-02-14T08:18:05.463Z,102044.84
2023-02-14T08:20:36.494Z,102045.34
2023-02-14T08:23:07.325Z,102048.22
2023-02-14T08:25:38.326Z,102051.30
2023-02-14T08:28:09.970Z,102056.36
2023-02-14T08:30:41.378Z,102059.63
2023-02-14T08:33:12.509Z,102060.50
2023-02-14T08:35:43.326Z,102063.27
2023-02-14T08:38:14.151Z,102062.84
2023-02-14T08:40:44.842Z,102064.29
2023-02-14T08:43:15.803Z,102063.11
2023-02-14T08:45:46.535Z,102063.67
2023-02-14T08:48:17.315Z,102063.90
2023-02-14T08:50:48.076Z,102062.33
2023-02-14T08:53:18.885Z,102063.24
2023-02-14T08:55:50.091Z,102064.57
2023-02-14T08:58:21.011Z,102064.52
2023-02-14T09:00:51.937Z,102060.88
2023-02-14T09:03:22.739Z,102058.95
2023-02-14T09:05:53.482Z,102058.89
2023-02-14T09:08:24.990Z,102060.39
2023-02-14T09:10:55.805Z,102058.98
2023-02-14T09:13:26.694Z,102063.63
2023-02-14T09:15:57.460Z,102067.48
2023-02-14T09:18:28.543Z,102071.10
2023-02-14T09:20:59.747Z,102067.52
2023-02-14T09:23:30.765Z,102072.45
2023-02-14T09:26:03.721Z,102071.81
2023-02-14T09:28:34.594Z,102067.52
2023-02-14T09:31:11.176Z,102064.93
2023-02-14T09:33:42.112Z,102064.72
2023-02-14T09:36:22.042Z,102069.41
2023-02-14T09:38:52.923Z,102067.02
2023-02-14T09:41:33.292Z,102063.83
2023-02-14T09:44:04.469Z,102060.52
2023-02-14T09:46:36.411Z,102057.42
2023-02-14T09:49:09.630Z,102057.38
2023-02-14T09:51:40.490Z,102057.15
2023-02-14T09:54:13.343Z,102056.29
2023-02-14T09:56:51.410Z,102057.75
2023-02-14T09:59:24.210Z,102055.52
2023-02-14T10:01:55.547Z,102055.43
2023-02-14T10:04:28.172Z,102050.79
2023-02-14T10:07:00.115Z,102049.82
2023-02-14T10:09:35.482Z,102049.17
2023-02-14T10:12:06.355Z,102043.44
2023-02-14T10:14:41.051Z,102035.79
2023-02-14T10:17:14.938Z,102029.15
2023-02-14T10:19:46.189Z,102028.28
2023-02-14T10:22:17.605Z,102025.67
2023-02-14T10:24:49.473Z,102022.91
2023-02-14T10:27:24.692Z,102016.35
2023-02-14T10:29:55.532Z,102004.23
2023-02-14T10:32:27.481Z,101993.90
2023-02-14T10:35:01.403Z,101990.36
2023-02-14T10:37:46.235Z,101996.53
2023-02-14T10:40:33.159Z,101996.48
2023-02-14T10:43:05.978Z,101998.50
2023-02-14T10:45:38.221Z,101987.70
2023-02-14T10:48:10.268Z,101985.58
2023-02-14T10:50:42.873Z,101981.30
2023-02-14T10:53:15.891Z,101977.25
2023-02-14T10:55:48.086Z,101977.46
2023-02-14T10:58:19.370Z,101978.55
2023-02-14T11:00:53.733Z,101971.80
2023-02-14T11:03:24.439Z,101965.25
2023-02-14T11:05:55.293Z,101963.44
2023-02-14T11:08:27.954Z,101965.04
2023-02-14T11:11:00.839Z,101960.02
2023-02-14T11:13:36.495Z,101962.23
2023-02-14T11:16:09.044Z,101954.77
2023-02-14T11:18:41.061Z,101955.48
2023-02-14T11:21:12.907Z,101954.41
2023-02-14T11:23:44.278Z,101951.72
2023-02-14T11:26:18.152Z,101949.63
2023-02-14T11:28:50.776Z,101946.92
2023-02-14T11:31:28.626Z,101945.28
2023-02-14T11:33:59.525Z,101946.11
2023-02-14T11:36:30.425Z,101936.40
2023-02-14T11:39:04.300Z,101929.75
2023-02-14T11:41:48.588Z,101923.63
2023-02-14T11:44:22.878Z,101925.98
2023-02-14T11:46:54.493Z,101925.37
2023-02-14T11:49:28.612Z,101919.75
2023-02-14T11:52:00.078Z,101914.29
2023-02-14T11:54:36.064Z,101916.52
2023-02-14T11:57:08.158Z,101904.95
2023-02-14T11:59:40.199Z,101905.16
2023-02-14T12:02:16.328Z,101905.73
2023-02-14T12:04:47.361Z,101901.23
2023-02-14T12:07:25.924Z,101898.54
2023-02-14T12:10:15.829Z,101887.02
2023-02-14T12:12:51.755Z,101883.91
2023-02-14T12:15:35.837Z,101881.20
2023-02-14T12:18:18.575Z,101882.16
2023-02-14T12:20:51.239Z,101873.13
2023-02-14T12:23:24.076Z,101865.58
2023-02-14T12:25:56.262Z,101859.78
2023-02-14T12:28:30.924Z,101855.42
2023-02-14T12:31:02.199Z,101847.63
2023-02-14T12:33:33.315Z,101845.05
2023-02-14T12:36:05.469Z,101848.01
2023-02-14T12:38:40.660Z,101843.08
2023-02-14T12:41:29.570Z,101836.60
2023-02-14T12:44:00.631Z,101832.88
2023-02-14T12:46:44.086Z,101829.91
2023-02-14T12:49:18.345Z,101834.14
2023-02-14T12:51:51.490Z,101840.07
2023-02-14T12:54:32.373Z,101846.27
2023-02-14T12:57:04.802Z,101846.65
2023-02-14T12:59:38.760Z,101848.52
2023-02-14T13:02:32.517Z,101854.17
2023-02-14T13:05:04.185Z,101844.67
2023-02-14T13:07:42.119Z,101850.25
2023-02-14T13:10:23.322Z,101844.96
2023-02-14T13:12:55.834Z,101844.13
2023-02-14T13:15:29.674Z,101846.73
2023-02-14T13:18:02.813Z,101846.87
2023-02-14T13:20:44.151Z,101849.35
2023-02-14T13:23:16.017Z,101840.46
2023-02-14T13:25:50.083Z,101831.15
2023-02-14T13:28:21.127Z,101831.35
2023-02-14T13:30:51.946Z,101828.99
2023-02-14T13:33:28.301Z,101821.98
2023-02-14T13:36:00.393Z,101823.30
2023-02-14T13:38:32.407Z,101818.09
2023-02-14T13:41:03.519Z,101821.98
2023-02-14T13:43:51.337Z,101824.10
2023-02-14T13:46:23.406Z,101820.79
2023-02-14T13:49:01.025Z,101814.27
2023-02-14T13:51:48.064Z,101815.20
2023-02-14T13:54:32.575Z,101802.73
2023-02-14T13:57:04.126Z,101802.71
2023-02-14T13:59:35.280Z,101804.77
2023-02-14T14:02:22.771Z,101809.20
2023-02-14T14:04:53.624Z,101807.06
2023-02-14T14:07:27.225Z,101803.50
2023-02-14T14:09:59.498Z,101800.73
2023-02-14T14:12:39.978Z,101799.16
2023-02-14T14:15:18.131Z,101799.97
2023-02-14T14:18:12.851Z,101800.11
2023-02-14T14:20:48.011Z,101803.97
2023-02-14T14:23:30.805Z,101801.66
2023-02-14T14:26:02.001Z,101800.30
2023-02-14T14:28:33.900Z,101797.45
2023-02-14T14:31:04.647Z,101802.79
2023-02-14T14:33:37.847Z,101801.13
2023-02-14T14:36:11.608Z,101800.91
2023-02-14T14:38:49.472Z,101804.83
2023-02-14T14:41:20.132Z,101805.30
2023-02-14T14:43:50.933Z,101803.39
2023-02-14T14:46:21.657Z,101802.69
2023-02-14T14:48:54.574Z,101807.34
2023-02-14T14:51:26.419Z,101804.14
2023-02-14T14:53:57.711Z,101801.67
2023-02-14T14:56:50.543Z,101800.41
2023-02-14T14:59:27.621Z,101798.86
2023-02-14T15:01:58.400Z,101807.07
2023-02-14T15:04:30.072Z,101797.48
2023-02-14T15:07:17.783Z,101796.16
2023-02-14T15:09:48.700Z,101795.12
2023-02-14T15:12:38.665Z,101801.71
2023-02-14T15:15:11.494Z,101804.41
2023-02-14T15:17:42.724Z,101799.70
2023-02-14T15:20:15.507Z,101804.48
2023-02-14T15:22:47.262Z,101803.40
2023-02-14T15:25:19.984Z,101805.44
2023-02-14T15:27:50.995Z,101800.61
2023-02-14T15:30:29.367Z,101799.14
2023-02-14T15:33:00.315Z,101799.65
2023-02-14T15:35:31.799Z,101800.79
2023-02-14T15:38:04.116Z,101803.26
2023-02-14T15:40:35.538Z,101811.90
2023-02-14T15:43:16.420Z,101815.02
2023-02-14T15:45:47.290Z,101816.48
2023-02-14T15:48:18.878Z,101822.27
2023-02-14T15:50:50.373Z,101826.29
2023-02-14T15:53:29.582Z,101827.20
2023-02-14T15:56:04.852Z,101832.07
2023-02-14T15:58:36.262Z,101835.94
2023-02-14T16:01:07.146Z,101836.84
2023-02-14T16:03:38.956Z,101842.52
2023-02-14T16:06:17.076Z,101841.02
2023-02-14T16:08:55.316Z,101843.47
2023-02-14T16:11:29.992Z,101846.66
2023-02-14T16:14:00.790Z,101852.79
2023-02-14T16:16:31.546Z,101851.56
2023-02-14T16:19:04.291Z,101863.58
2023-02-14T16:21:34.991Z,101869.70
2023-02-14T16:24:15.907Z,101872.09
2023-02-14T16:26:46.907Z,101869.77
2023-02-14T16:29:19.658Z,101870.58
2023-02-14T16:32:15.837Z,101872.98
2023-02-14T16:34:41.837Z,101872.61
2023-02-14T16:37:19.586Z,101870.80
2023-02-14T16:39:50.657Z,101873.90
2023-02-14T16:42:21.488Z,101875.77
2023-02-14T16:44:52.422Z,101877.17
2023-02-14T16:47:23.494Z,101876.90
2023-02-14T16:49:54.445Z,101882.62
2023-02-14T16:52:26.258Z,101888.89
2023-02-14T16:54:57.099Z,101889.97
2023-02-14T16:57:28.740Z,101893.05
2023-02-14T16:59:59.679Z,101893.77
2023-02-14T17:02:30.903Z,101894.90
2023-02-14T17:05:02.048Z,101905.99
2023-02-14T17:07:33.092Z,101905.16
2023-02-14T17:10:04.848Z,101907.30
2023-02-14T17:12:36.943Z,101911.66
2023-02-14T17:15:09.830Z,101910.33
2023-02-14T17:17:40.804Z,101918.39
2023-02-14T17:20:12.469Z,101923.88
2023-02-14T17:23:28.159Z,101926.52
2023-02-14T17:26:02.101Z,101930.59
2023-02-14T17:28:33.065Z,101930.42
2023-02-14T17:31:04.526Z,101937.83
2023-02-14T17:33:35.829Z,101941.59
2023-02-14T17:36:08.181Z,101941.45
2023-02-14T17:38:40.232Z,101944.39
2023-02-14T17:41:15.046Z,101942.30
2023-02-14T17:43:46.123Z,101943.27
2023-02-14T17:46:18.804Z,101949.47
2023-02-14T17:48:49.984Z,101951.63
2023-02-14T17:51:21.015Z,101955.14
2023-02-14T17:53:52.255Z,101956.91
2023-02-14T17:56:23.784Z,101955.44
2023-02-14T17:58:55.392Z,101954.33
2023-02-14T18:01:27.149Z,101952.65
2023-02-14T18:03:58.254Z,101950.52
2023-02-14T18:06:29.215Z,101957.23
2023-02-14T18:09:00.385Z,101955.30
2023-02-14T18:11:31.338Z,101955.92
2023-02-14T18:14:03.834Z,101960.64
2023-02-14T18:16:34.758Z,101965.59
2023-02-14T18:19:05.882Z,101972.00
2023-02-14T18:21:37.222Z,101966.67
2023-02-14T18:24:08.597Z,101961.35
2023-02-14T18:26:40.959Z,101954.54
2023-02-14T18:29:12.914Z,101956.67
2023-02-14T18:31:44.299Z,101957.52
2023-02-14T18:34:15.366Z,101964.02
2023-02-14T18:36:46.149Z,101969.46
2023-02-14T18:39:17.391Z,101971.99
2023-02-14T18:41:48.194Z,101968.52
2023-02-14T18:44:20.889Z,101972.51
2023-02-14T18:46:53.978Z,101975.00
2023-02-14T18:49:25.006Z,101973.13
2023-02-14T18:51:57.429Z,101968.70
2023-02-14T18:54:28.357Z,101968.80
2023-02-14T18:56:59.275Z,101968.93
2023-02-14T18:59:30.172Z,101969.43
2023-02-14T19:02:01.079Z,101969.92
2023-02-14T19:04:32.351Z,101965.21
2023-02-14T19:07:04.696Z,101962.55
2023-02-14T19:09:39.955Z,101965.27
2023-02-14T19:12:11.221Z,101964.27
2023-02-14T19:14:43.191Z,101967.48
2023-02-14T19:17:16.960Z,101971.66
2023-02-14T19:19:48.330Z,101975.84
2023-02-14T19:22:19.293Z,101979.34
2023-02-14T19:24:50.655Z,101979.23
2023-02-14T19:27:21.929Z,101983.31
2023-02-14T19:29:52.913Z,101986.84
2023-02-14T19:32:23.816Z,101984.48
2023-02-14T19:34:54.619Z,101980.98
2023-02-14T19:37:26.790Z,101981.04
2023-02-14T19:39:57.565Z,101978.71
2023-02-14T19:42:28.374Z,101977.07
2023-02-14T19:44:59.248Z,101974.99
2023-02-14T19:47:46.005Z,101975.02
2023-02-14T19:50:22.054Z,101979.36
2023-02-14T19:52:52.970Z,101977.48
2023-02-14T19:55:28.329Z,101973.83
2023-02-14T19:57:59.129Z,101972.35
2023-02-14T20:00:34.528Z,101972.64
2023-02-14T20:03:06.243Z,101978.34
2023-02-14T20:05:37.915Z,101980.02
2023-02-14T20:08:14.302Z,101976.55
2023-02-14T20:10:45.225Z,101970.60
2023-02-14T20:13:15.842Z,101969.36
2023-02-14T20:15:48.835Z,101965.91
2023-02-14T20:18:21.737Z,101972.08
2023-02-14T20:21:07.007Z,101983.53
2023-02-14T20:23:39.675Z,101983.63
2023-02-14T20:26:13.896Z,101985.09
2023-02-14T20:28:48.860Z,101982.73
2023-02-14T20:31:22.240Z,101982.27
2023-02-14T20:34:03.734Z,101982.68
2023-02-14T20:36:34.609Z,101987.38
2023-02-14T20:39:09.109Z,101986.57
2023-02-14T20:41:40.007Z,101984.70
2023-02-14T20:44:12.045Z,101988.85
2023-02-14T20:46:43.009Z,101994.95
2023-02-14T20:49:13.738Z,102000.04
2023-02-14T20:51:50.382Z,102000.23
2023-02-14T20:54:23.129Z,102007.95
2023-02-14T20:56:54.122Z,102010.09
2023-02-14T20:59:27.292Z,102013.38
2023-02-14T21:02:00.241Z,102016.77
2023-02-14T21:04:31.344Z,102024.22
2023-02-14T21:07:07.688Z,102029.61
2023-02-14T21:09:39.077Z,102032.86
2023-02-14T21:12:09.982Z,102037.55
2023-02-14T21:14:40.763Z,102042.60
2023-02-14T21:17:11.531Z,102046.91
2023-02-14T21:19:45.437Z,102046.83
2023-02-14T21:22:17.025Z,102052.78
2023-02-14T21:24:47.967Z,102057.61
2023-02-14T21:27:20.953Z,102056.40
2023-02-14T21:29:52.040Z,102062.57
2023-02-14T21:32:22.974Z,102063.42
2023-02-14T21:34:56.767Z,102067.05
2023-02-14T21:37:27.588Z,102065.50
2023-02-14T21:40:01.661Z,102062.96
2023-02-14T21:42:33.356Z,102058.76
2023-02-14T21:45:23.482Z,102056.98
2023-02-14T21:48:08.129Z,102056.13
2023-02-14T21:50:39.565Z,102055.39
2023-02-14T21:53:10.523Z,102057.61
2023-02-14T21:55:42.934Z,102059.90
2023-02-14T21:58:17.178Z,102061.08
2023-02-14T22:00:49.456Z,102060.02
2023-02-14T22:03:20.345Z,102062.07
2023-02-14T22:05:51.361Z,102069.01
2023-02-14T22:08:22.124Z,102071.98
2023-02-14T22:10:52.951Z,102071.60
2023-02-14T22:13:23.788Z,102065.82
2023-02-14T22:15:54.738Z,102069.50
2023-02-14T22:18:25.710Z,102070.20
2023-02-14T22:20:56.490Z,102070.84
2023-02-14T22:23:29.006Z,102068.75
2023-02-14T22:26:07.970Z,102071.88
2023-02-14T22:28:38.801Z,102066.54
2023-02-14T22:31:09.708Z,102069.87
2023-02-14T22:33:40.537Z,102072.98
2023-02-14T22:36:11.558Z,102069.23
2023-02-14T22:38:42.444Z,102066.27
2023-02-14T22:41:14.107Z,102067.82
2023-02-14T22:43:44.984Z,102065.18
2023-02-14T22:46:17.153Z,102062.96
2023-02-14T22:48:48.117Z,102059.58
2023-02-14T22:51:21.737Z,102062.17
2023-02-14T22:53:53.221Z,102061.80
2023-02-14T22:56:25.158Z,102059.64
2023-02-14T22:58:56.694Z,102054.34
2023-02-14T23:01:27.717Z,102052.59
2023-02-14T23:03:59.225Z,102055.36
2023-02-14T23:06:30.602Z,102060.45
2023-02-14T23:09:01.620Z,102063.02
2023-02-14T23:11:33.012Z,102065.37
2023-02-14T23:14:20.959Z,102071.04
2023-02-14T23:17:20.987Z,102070.62
2023-02-14T23:20:09.306Z,102075.59
2023-02-14T23:22:40.550Z,102080.23
2023-02-14T23:25:12.106Z,102086.38
2023-02-14T23:27:43.837Z,102087.10
2023-02-14T23:30:16.038Z,102089.84
2023-02-14T23:32:46.892Z,102087.62
2023-02-14T23:35:17.744Z,102083.02
2023-02-14T23:37:48.545Z,102091.17
2023-02-14T23:40:19.315Z,102093.07
2023-02-14T23:42:50.066Z,102094.03
2023-02-14T23:45:36.254Z,102094.05
2023-02-14T23:48:07.266Z,102103.33
2023-02-14T23:50:38.409Z,102109.73
2023-02-14T23:53:09.304Z,102106.87
2023-02-14T23:55:40.269Z,102112.39
2023-02-14T23:58:11.305Z,102114.04
